フランクフルト の空港の天気 - METARとTAF

フランクフルト国際空港 ( EDDF / FRA ) - ドイツ フランクフルト・アム・マイン
飛行場実況気象(Metar)
観測時間08/19 01:50 CEST (08/18 23:50 UTC)
風向・風速不定 1m/s
視程10km以上
天気現象
なし
気温15℃
湿度67%
気圧1022hPa
METAREDDF 182350Z VRB01KT CAVOK 15/09 Q1022 NOSIG
過去の天気等 Google飛行場航空写真 Wunderground天気予報

過去48時間のMETAR

飛行場予報(TAF)
発表時間: 8/19 01:00 CEST (8/18 23:00 UTC)
予報対象時間: 19日2時 CEST ~ 20日8時 CEST
風向・風速北北東 2m/s
視程10km以上
なし
19日10時 CEST ~ 19日12時 CEST に徐々に
風向・風速西南西 4m/s
19日23時 CEST ~ 20日1時 CEST に徐々に
風向・風速不定 2m/s
TAF EDDF 182300Z 1900/2006 02003KT CAVOK
BECMG 1908/1910 25007KT
BECMG 1921/1923 VRB03KT